CheckWX is a tool to help pilots better visualize weather data.  It is not intended as a substitute for an official pre-flight weather briefing.

19:02:49 UTC

KNTD METAR
Point Mugu NAS (Naval Base Ventura Co) Airport
Oxnard, California, USA
Current

6 mins ago

KNTD 191857Z 22008KT 10SM OVC021 19/16 A3001 RMK AO2 SLP163 T01890156 $
Observed
Jun-19 @ 18:57 UTC
Wind
  • 220° at 8 KTS
Visibility
10 SM
Flight Rules
MVFR
Cloud Levels
  • Overcast at 2,100' AGL
Temperature
19°C / 66°F
Dewpoint
16°C / 61°F
Humidity
83%
Altimeter
30.01" Hg
Pressure
1016.22 hPa
Previous

1 hour ago

KNTD 191757Z 22006KT 6SM HZ OVC020 18/16 A3000 RMK AO2 SLP161 T01830156 10189 20167 51004 $
Observed
Jun-19 @ 17:57 UTC
Wind
  • 220° at 6 KTS
Visibility
6 SM
Flight Rules
MVFR
Conditions
Haze
Cloud Levels
  • Overcast at 2,000' AGL
Temperature
18°C / 64°F
Dewpoint
16°C / 61°F
Humidity
88%
Altimeter
30" Hg
Pressure
1015.92 hPa
Previous

2 hours ago

KNTD 191657Z 25005KT 5SM HZ FEW014 OVC021 19/15 A3000 RMK AO2 SLP160 T01890150 $
Observed
Jun-19 @ 16:57 UTC
Wind
  • 250° at 5 KTS
Visibility
5 SM
Flight Rules
MVFR
Conditions
Haze
Cloud Levels
  • Few at 1,400' AGL
  • Overcast at 2,100' AGL
Temperature
19°C / 66°F
Dewpoint
15°C / 59°F
Humidity
78%
Altimeter
30" Hg
Pressure
1015.92 hPa